This is the latest recevied weather packets stored in our database for station/object KN6KDD. If no packets are shown the sender has not sent any weather packets the latest 10 day(s).
| Time | Temp. | Humidity | Pressure | Rain* | Wind** | Luminosity | Snow |
|---|---|---|---|---|---|---|---|
| 1777398921 | 17.22° C | 67% | 1360.8 hPa | 0 mm | - | 783 W/m² | - |
| 1777398618 | 17.22° C | 68% | 1360.8 hPa | 0 mm | - | 771 W/m² | - |
| 1777398315 | 16.67° C | 67% | 1360.9 hPa | 0 mm | - | 757 W/m² | - |
| 1777398012 | 15.56° C | 70% | 1360.6 hPa | 0 mm | - | 742 W/m² | - |
| 1777397708 | 16.11° C | 69% | 1360.8 hPa | 0 mm | - | 731 W/m² | - |
| 1777397404 | 16.11° C | 69% | 1360.6 hPa | 0 mm | - | 718 W/m² | - |
| 1777397100 | 15.56° C | 69% | 1360.8 hPa | 0 mm | - | 700 W/m² | - |
| 1777396797 | 16.11° C | 69% | 1360.9 hPa | 0 mm | - | 684 W/m² | - |
| 1777396494 | 15° C | 70% | 1360.9 hPa | 0 mm | - | 675 W/m² | - |
| 1777396191 | 15° C | 70% | 1360.8 hPa | 0 mm | - | 659 W/m² | - |
| 1777395886 | 15° C | 69% | 1360.6 hPa | 0 mm | - | 645 W/m² | - |
| 1777395582 | 15° C | 72% | 1360.5 hPa | 0 mm | - | 630 W/m² | - |
| 1777395278 | 15° C | 71% | 1360.6 hPa | 0 mm | - | 615 W/m² | - |
| 1777394977 | 15° C | 71% | 1360.8 hPa | 0 mm | - | 599 W/m² | - |
| 1777394672 | 14.44° C | 74% | 1360.5 hPa | 0 mm | - | 582 W/m² | - |
| 1777394369 | 13.89° C | 75% | 1360.8 hPa | 0 mm | - | 566 W/m² | - |
| 1777394066 | 13.89° C | 76% | 1360.8 hPa | 0 mm | - | 541 W/m² | - |
| 1777393761 | 13.89° C | 74% | 1360.8 hPa | 0 mm | - | 528 W/m² | - |
| 1777393461 | 14.44° C | 73% | 1360.5 hPa | 0 mm | - | 508 W/m² | - |
| 1777393157 | 13.89° C | 76% | 1360.6 hPa | 0 mm | - | 490 W/m² | - |
| 1777392854 | 13.89° C | 75% | 1360.5 hPa | 0 mm | - | 468 W/m² | - |
| 1777392549 | 13.33° C | 75% | 1360.5 hPa | 0 mm | - | 446 W/m² | - |
| 1777392245 | 12.78° C | 79% | 1360.6 hPa | 0 mm | - | 475 W/m² | - |
| 1777391940 | 12.78° C | 78% | 1360.5 hPa | 0 mm | - | 521 W/m² | - |
| 1777391635 | 12.78° C | 78% | 1360.5 hPa | 0 mm | - | 482 W/m² | - |
* Rain latest hour (hover to see other rain measurements)
** Current wind speed in m/s (hover to see current wind gust speed)